Allen, MD

8:59 PM EDT on October 21, 2014 (GMT -0400)
Mathialoc's Nest | Change Station
CLOSE
Current Station
Personal Weather Station
Location: Eden, MD
Elevation: 49 ft
Nearby Weather Stations

Elev 49 ft 38.25 °N, 75.61 °W | Updated 16 seconds ago

Partly Cloudy
Partly Cloudy
53.4 °F
Feels Like 53.4 °F
N
0.0
Wind Variable Wind from West
Gusts 0.0 mph

Today
High -- | Low -- °F
--% Chance of Precip.
Yesterday
High -- | Low -- °F
Precip. -- in
7:17 AM 6:16 PM
Waning Crescent, 4% visible
Pressure 29.84 in
Visibility 10.0 miles
Clouds Few 9000 ft
Dew Point 53 °F
Humidity 98%
Rainfall 0.00 in
Snow Depth Not available.
UV 0 out of 12
Pollen .70 out of 12
Air Quality Not available.
Flu Activity Sporadic
METAR KSBY 220054Z 00000KT 10SM FEW090 14/11 A2983 RMK AO2 LTG DSNT W SLP104 T01440106

More Conditions Fewer Conditions

Pressure 29.84 in
Visibility 10.0 miles
Clouds Few 9000 ft
Dew Point 53 °F
Humidity 98%
Rainfall 0.00 in
Snow Depth Not available.
UV 0 out of 12
Pollen .70 out of 12
Air Quality Not available.
Flu Activity Sporadic
METAR KSBY 220054Z 00000KT 10SM FEW090 14/11 A2983 RMK AO2 LTG DSNT W SLP104 T01440106

More Conditions Fewer Conditions

10-Day Weather Forecast

Almanac

Astronomy

Oct. 21, 2014 Rise Set
Actual Time 7:17 AM EDT 6:16 PM EDT
Civil Twilight 6:50 AM EDT 6:43 PM EDT
Nautical Twilight 6:19 AM EDT 7:14 PM EDT
Astronomical Twilight 5:49 AM EDT 7:44 PM EDT
Moon 5:01 AM EDT (10/21) 5:07 PM EDT (10/21)
Length of Visible Light 11h 52m
Length of Day
10h 59m
Tomorrow will be 2m 19s shorter.
Waning Crescent, 4% of the Moon is Illuminated
Today
Waning Crescent
Oct 23
New
Oct 30
First Quarter
Nov 6
Full
Nov 14
Last Quarter

Today's Extremes

State Highs State Lows

Community

WunderPhotos

Upload Photos

1,763,837 photos uploaded!

Nearby

Snow Depth

Station Depth Elevation
No new snow has been reported.

Earthquake Activity

City Distance Mag. Time & Date
No recent earthquake activity has been reported nearby.
Minimum magnitude displayed is 2.5.

Coastal Water Temperatures

Place Temperature
Bishops Head, MD 62.1 °F
Lewisetta, VA 64.9 °F
Solomons Island, MD 66.0 °F
Cambridge, MD 63.0 °F

Nearby Weather Stations